sensor_id;sensor_type;location;lat;lon;timestamp;P1;durP1;ratioP1;P2;durP2;ratioP2
26474;SDS011;14161;52.270;10.334;2023-08-08T00:01:15;5.53;;;1.52;;
26474;SDS011;14161;52.270;10.334;2023-08-08T00:03:40;4.43;;;1.40;;
26474;SDS011;14161;52.270;10.334;2023-08-08T00:06:06;2.45;;;1.20;;
26474;SDS011;14161;52.270;10.334;2023-08-08T00:08:31;3.42;;;1.40;;
26474;SDS011;14161;52.270;10.334;2023-08-08T00:10:56;2.72;;;1.50;;
26474;SDS011;14161;52.270;10.334;2023-08-08T00:13:23;3.58;;;1.50;;
26474;SDS011;14161;52.270;10.334;2023-08-08T00:15:49;3.10;;;1.38;;
26474;SDS011;14161;52.270;10.334;2023-08-08T00:18:14;2.67;;;1.42;;
26474;SDS011;14161;52.270;10.334;2023-08-08T00:20:40;2.80;;;1.30;;
26474;SDS011;14161;52.270;10.334;2023-08-08T00:23:05;1.92;;;1.60;;
26474;SDS011;14161;52.270;10.334;2023-08-08T00:25:30;2.25;;;1.20;;
26474;SDS011;14161;52.270;10.334;2023-08-08T00:27:56;2.92;;;1.38;;
26474;SDS011;14161;52.270;10.334;2023-08-08T00:30:21;1.38;;;1.25;;
26474;SDS011;14161;52.270;10.334;2023-08-08T00:32:47;3.88;;;1.92;;
26474;SDS011;14161;52.270;10.334;2023-08-08T00:35:12;4.32;;;1.98;;
26474;SDS011;14161;52.270;10.334;2023-08-08T00:37:38;3.25;;;1.73;;
26474;SDS011;14161;52.270;10.334;2023-08-08T00:40:03;3.35;;;1.85;;
26474;SDS011;14161;52.270;10.334;2023-08-08T00:42:29;3.00;;;1.90;;
26474;SDS011;14161;52.270;10.334;2023-08-08T00:44:54;3.45;;;1.60;;
26474;SDS011;14161;52.270;10.334;2023-08-08T00:47:26;4.00;;;1.70;;
26474;SDS011;14161;52.270;10.334;2023-08-08T00:49:54;4.18;;;1.92;;
26474;SDS011;14161;52.270;10.334;2023-08-08T00:52:20;4.28;;;1.83;;
26474;SDS011;14161;52.270;10.334;2023-08-08T00:54:45;5.38;;;2.10;;
26474;SDS011;14161;52.270;10.334;2023-08-08T00:57:11;6.60;;;1.88;;
26474;SDS011;14161;52.270;10.334;2023-08-08T00:59:37;3.65;;;1.80;;
26474;SDS011;14161;52.270;10.334;2023-08-08T01:02:02;3.03;;;1.75;;
26474;SDS011;14161;52.270;10.334;2023-08-08T01:04:28;4.90;;;1.85;;
26474;SDS011;14161;52.270;10.334;2023-08-08T01:07:06;3.40;;;2.00;;
26474;SDS011;14161;52.270;10.334;2023-08-08T01:09:48;5.35;;;1.77;;
26474;SDS011;14161;52.270;10.334;2023-08-08T01:12:41;4.13;;;2.10;;
26474;SDS011;14161;52.270;10.334;2023-08-08T01:15:09;2.92;;;1.70;;
26474;SDS011;14161;52.270;10.334;2023-08-08T01:17:35;3.47;;;1.70;;
26474;SDS011;14161;52.270;10.334;2023-08-08T01:20:05;4.85;;;1.85;;
26474;SDS011;14161;52.270;10.334;2023-08-08T01:22:35;3.88;;;2.13;;
26474;SDS011;14161;52.270;10.334;2023-08-08T01:25:03;2.22;;;1.75;;
26474;SDS011;14161;52.270;10.334;2023-08-08T01:27:30;3.88;;;1.65;;
26474;SDS011;14161;52.270;10.334;2023-08-08T01:29:55;3.97;;;2.10;;
26474;SDS011;14161;52.270;10.334;2023-08-08T01:32:21;4.03;;;1.65;;
26474;SDS011;14161;52.270;10.334;2023-08-08T01:34:46;4.40;;;1.80;;
26474;SDS011;14161;52.270;10.334;2023-08-08T01:39:52;4.13;;;1.60;;
26474;SDS011;14161;52.270;10.334;2023-08-08T01:42:20;4.70;;;2.30;;
26474;SDS011;14161;52.270;10.334;2023-08-08T01:44:46;3.22;;;1.90;;
26474;SDS011;14161;52.270;10.334;2023-08-08T01:47:12;1.98;;;1.73;;
26474;SDS011;14161;52.270;10.334;2023-08-08T01:49:38;4.55;;;2.10;;
26474;SDS011;14161;52.270;10.334;2023-08-08T01:52:03;2.75;;;1.98;;
26474;SDS011;14161;52.270;10.334;2023-08-08T01:54:30;4.68;;;1.95;;
26474;SDS011;14161;52.270;10.334;2023-08-08T01:56:55;3.33;;;2.00;;
26474;SDS011;14161;52.270;10.334;2023-08-08T01:59:21;4.20;;;1.95;;
26474;SDS011;14161;52.270;10.334;2023-08-08T02:01:47;3.47;;;2.20;;
26474;SDS011;14161;52.270;10.334;2023-08-08T02:04:13;3.17;;;1.80;;
26474;SDS011;14161;52.270;10.334;2023-08-08T02:06:38;3.28;;;1.75;;
26474;SDS011;14161;52.270;10.334;2023-08-08T02:09:04;4.68;;;1.80;;
26474;SDS011;14161;52.270;10.334;2023-08-08T02:11:29;3.40;;;1.92;;
26474;SDS011;14161;52.270;10.334;2023-08-08T02:13:55;3.40;;;1.90;;
26474;SDS011;14161;52.270;10.334;2023-08-08T02:16:20;2.28;;;1.73;;
26474;SDS011;14161;52.270;10.334;2023-08-08T02:18:46;4.95;;;1.98;;
26474;SDS011;14161;52.270;10.334;2023-08-08T02:21:12;3.40;;;1.95;;
26474;SDS011;14161;52.270;10.334;2023-08-08T02:23:37;3.03;;;1.80;;
26474;SDS011;14161;52.270;10.334;2023-08-08T02:26:04;2.90;;;2.00;;
26474;SDS011;14161;52.270;10.334;2023-08-08T02:28:30;5.18;;;2.17;;
26474;SDS011;14161;52.270;10.334;2023-08-08T02:30:55;4.25;;;2.45;;
26474;SDS011;14161;52.270;10.334;2023-08-08T02:33:21;2.38;;;1.85;;
26474;SDS011;14161;52.270;10.334;2023-08-08T02:35:46;4.47;;;1.73;;
26474;SDS011;14161;52.270;10.334;2023-08-08T02:38:13;3.15;;;1.63;;
26474;SDS011;14161;52.270;10.334;2023-08-08T02:40:39;4.18;;;1.88;;
26474;SDS011;14161;52.270;10.334;2023-08-08T02:43:05;5.22;;;1.95;;
26474;SDS011;14161;52.270;10.334;2023-08-08T02:45:30;2.38;;;1.77;;
26474;SDS011;14161;52.270;10.334;2023-08-08T02:47:56;2.47;;;1.90;;
26474;SDS011;14161;52.270;10.334;2023-08-08T02:50:21;2.17;;;1.67;;
26474;SDS011;14161;52.270;10.334;2023-08-08T02:52:47;4.25;;;2.40;;
26474;SDS011;14161;52.270;10.334;2023-08-08T02:55:12;3.22;;;2.00;;
26474;SDS011;14161;52.270;10.334;2023-08-08T02:57:39;4.43;;;2.28;;
26474;SDS011;14161;52.270;10.334;2023-08-08T03:00:05;2.17;;;1.77;;
26474;SDS011;14161;52.270;10.334;2023-08-08T03:02:37;4.88;;;2.08;;
26474;SDS011;14161;52.270;10.334;2023-08-08T03:05:03;4.82;;;1.95;;
26474;SDS011;14161;52.270;10.334;2023-08-08T03:07:29;3.78;;;2.15;;
26474;SDS011;14161;52.270;10.334;2023-08-08T03:09:55;5.10;;;2.10;;
26474;SDS011;14161;52.270;10.334;2023-08-08T03:12:20;4.45;;;2.20;;
26474;SDS011;14161;52.270;10.334;2023-08-08T03:14:46;4.38;;;2.08;;
26474;SDS011;14161;52.270;10.334;2023-08-08T03:17:11;2.15;;;1.95;;
26474;SDS011;14161;52.270;10.334;2023-08-08T03:19:37;4.18;;;1.95;;
26474;SDS011;14161;52.270;10.334;2023-08-08T03:22:04;3.60;;;2.20;;
26474;SDS011;14161;52.270;10.334;2023-08-08T03:24:32;3.58;;;2.17;;
26474;SDS011;14161;52.270;10.334;2023-08-08T03:26:58;4.93;;;2.20;;
26474;SDS011;14161;52.270;10.334;2023-08-08T03:29:25;3.40;;;2.28;;
26474;SDS011;14161;52.270;10.334;2023-08-08T03:31:50;3.22;;;2.05;;
26474;SDS011;14161;52.270;10.334;2023-08-08T03:34:16;3.38;;;2.20;;
26474;SDS011;14161;52.270;10.334;2023-08-08T03:36:42;4.95;;;1.88;;
26474;SDS011;14161;52.270;10.334;2023-08-08T03:39:08;3.30;;;2.25;;
26474;SDS011;14161;52.270;10.334;2023-08-08T03:41:34;2.20;;;2.00;;
26474;SDS011;14161;52.270;10.334;2023-08-08T03:43:59;3.95;;;2.10;;
26474;SDS011;14161;52.270;10.334;2023-08-08T03:46:25;4.47;;;2.10;;
26474;SDS011;14161;52.270;10.334;2023-08-08T03:48:51;3.13;;;2.10;;
26474;SDS011;14161;52.270;10.334;2023-08-08T03:51:16;5.32;;;2.50;;
26474;SDS011;14161;52.270;10.334;2023-08-08T03:53:42;4.13;;;2.25;;
26474;SDS011;14161;52.270;10.334;2023-08-08T03:56:07;4.55;;;2.15;;
26474;SDS011;14161;52.270;10.334;2023-08-08T03:58:33;4.80;;;2.00;;
26474;SDS011;14161;52.270;10.334;2023-08-08T04:00:58;7.82;;;2.15;;
26474;SDS011;14161;52.270;10.334;2023-08-08T04:03:24;3.10;;;2.13;;
26474;SDS011;14161;52.270;10.334;2023-08-08T04:05:49;3.60;;;2.25;;
26474;SDS011;14161;52.270;10.334;2023-08-08T04:08:15;5.07;;;2.92;;
26474;SDS011;14161;52.270;10.334;2023-08-08T04:10:41;5.20;;;2.28;;
26474;SDS011;14161;52.270;10.334;2023-08-08T04:13:07;4.53;;;2.58;;
26474;SDS011;14161;52.270;10.334;2023-08-08T04:15:33;4.25;;;2.60;;
26474;SDS011;14161;52.270;10.334;2023-08-08T04:17:59;3.72;;;2.05;;
26474;SDS011;14161;52.270;10.334;2023-08-08T04:20:24;5.72;;;2.50;;
26474;SDS011;14161;52.270;10.334;2023-08-08T04:22:49;3.47;;;2.03;;
26474;SDS011;14161;52.270;10.334;2023-08-08T04:25:15;4.47;;;2.05;;
26474;SDS011;14161;52.270;10.334;2023-08-08T04:27:41;3.38;;;2.08;;
26474;SDS011;14161;52.270;10.334;2023-08-08T04:30:06;5.10;;;2.10;;
26474;SDS011;14161;52.270;10.334;2023-08-08T04:32:32;3.83;;;2.03;;
26474;SDS011;14161;52.270;10.334;2023-08-08T04:34:58;4.07;;;2.30;;
26474;SDS011;14161;52.270;10.334;2023-08-08T04:37:23;3.88;;;2.38;;
26474;SDS011;14161;52.270;10.334;2023-08-08T04:39:49;3.00;;;1.88;;
26474;SDS011;14161;52.270;10.334;2023-08-08T04:42:14;3.38;;;2.17;;
26474;SDS011;14161;52.270;10.334;2023-08-08T04:44:40;3.70;;;2.38;;
26474;SDS011;14161;52.270;10.334;2023-08-08T04:47:05;2.78;;;2.00;;
26474;SDS011;14161;52.270;10.334;2023-08-08T04:49:30;5.70;;;2.30;;
26474;SDS011;14161;52.270;10.334;2023-08-08T04:51:56;4.28;;;1.90;;
26474;SDS011;14161;52.270;10.334;2023-08-08T04:54:21;3.22;;;1.85;;
26474;SDS011;14161;52.270;10.334;2023-08-08T04:56:47;4.28;;;2.10;;
26474;SDS011;14161;52.270;10.334;2023-08-08T04:59:12;4.70;;;1.98;;
26474;SDS011;14161;52.270;10.334;2023-08-08T05:01:38;3.22;;;1.80;;
26474;SDS011;14161;52.270;10.334;2023-08-08T05:04:03;3.30;;;1.60;;
26474;SDS011;14161;52.270;10.334;2023-08-08T05:06:29;2.13;;;1.38;;
26474;SDS011;14161;52.270;10.334;2023-08-08T05:08:54;6.63;;;2.05;;
26474;SDS011;14161;52.270;10.334;2023-08-08T05:11:21;3.72;;;2.00;;
26474;SDS011;14161;52.270;10.334;2023-08-08T05:13:47;3.47;;;1.85;;
26474;SDS011;14161;52.270;10.334;2023-08-08T05:16:12;3.13;;;2.03;;
26474;SDS011;14161;52.270;10.334;2023-08-08T05:18:38;5.70;;;2.45;;
26474;SDS011;14161;52.270;10.334;2023-08-08T05:21:03;2.42;;;1.83;;
26474;SDS011;14161;52.270;10.334;2023-08-08T05:23:29;3.13;;;2.10;;
26474;SDS011;14161;52.270;10.334;2023-08-08T05:25:54;2.80;;;1.80;;
26474;SDS011;14161;52.270;10.334;2023-08-08T05:28:20;2.22;;;1.88;;
26474;SDS011;14161;52.270;10.334;2023-08-08T05:30:45;4.18;;;2.00;;
26474;SDS011;14161;52.270;10.334;2023-08-08T05:33:11;4.38;;;2.03;;
26474;SDS011;14161;52.270;10.334;2023-08-08T05:35:36;4.70;;;2.33;;
26474;SDS011;14161;52.270;10.334;2023-08-08T05:38:02;5.75;;;2.90;;
26474;SDS011;14161;52.270;10.334;2023-08-08T05:40:28;4.78;;;2.08;;
26474;SDS011;14161;52.270;10.334;2023-08-08T05:42:54;3.90;;;2.22;;
26474;SDS011;14161;52.270;10.334;2023-08-08T05:45:20;3.65;;;1.85;;
26474;SDS011;14161;52.270;10.334;2023-08-08T05:47:45;3.33;;;1.92;;
26474;SDS011;14161;52.270;10.334;2023-08-08T05:50:10;4.10;;;2.50;;
26474;SDS011;14161;52.270;10.334;2023-08-08T05:52:36;4.63;;;2.50;;
26474;SDS011;14161;52.270;10.334;2023-08-08T05:55:01;8.18;;;2.40;;
26474;SDS011;14161;52.270;10.334;2023-08-08T05:57:27;3.03;;;2.17;;
26474;SDS011;14161;52.270;10.334;2023-08-08T05:59:52;6.10;;;2.42;;
26474;SDS011;14161;52.270;10.334;2023-08-08T06:02:18;3.60;;;2.25;;
26474;SDS011;14161;52.270;10.334;2023-08-08T06:04:43;3.53;;;2.10;;
26474;SDS011;14161;52.270;10.334;2023-08-08T06:07:10;5.72;;;2.72;;
26474;SDS011;14161;52.270;10.334;2023-08-08T06:09:36;5.57;;;2.40;;
26474;SDS011;14161;52.270;10.334;2023-08-08T06:12:02;5.13;;;2.20;;
26474;SDS011;14161;52.270;10.334;2023-08-08T06:14:28;7.18;;;3.08;;
26474;SDS011;14161;52.270;10.334;2023-08-08T06:16:55;5.68;;;2.70;;
26474;SDS011;14161;52.270;10.334;2023-08-08T06:19:20;4.78;;;2.55;;
26474;SDS011;14161;52.270;10.334;2023-08-08T06:21:46;6.45;;;2.92;;
26474;SDS011;14161;52.270;10.334;2023-08-08T06:24:11;4.15;;;2.47;;
26474;SDS011;14161;52.270;10.334;2023-08-08T06:26:37;4.00;;;2.85;;
26474;SDS011;14161;52.270;10.334;2023-08-08T06:29:03;5.82;;;2.50;;
26474;SDS011;14161;52.270;10.334;2023-08-08T06:31:29;4.28;;;2.60;;
26474;SDS011;14161;52.270;10.334;2023-08-08T06:33:55;3.30;;;2.20;;
26474;SDS011;14161;52.270;10.334;2023-08-08T06:36:20;7.25;;;3.08;;
26474;SDS011;14161;52.270;10.334;2023-08-08T06:38:45;6.18;;;2.83;;
26474;SDS011;14161;52.270;10.334;2023-08-08T06:41:11;6.57;;;3.13;;
26474;SDS011;14161;52.270;10.334;2023-08-08T06:43:36;6.85;;;3.05;;
26474;SDS011;14161;52.270;10.334;2023-08-08T06:46:02;4.82;;;2.80;;
26474;SDS011;14161;52.270;10.334;2023-08-08T06:48:27;4.65;;;2.83;;
26474;SDS011;14161;52.270;10.334;2023-08-08T06:50:53;4.00;;;2.65;;
26474;SDS011;14161;52.270;10.334;2023-08-08T06:53:18;7.13;;;2.70;;
26474;SDS011;14161;52.270;10.334;2023-08-08T06:55:44;7.72;;;3.10;;
26474;SDS011;14161;52.270;10.334;2023-08-08T06:58:09;4.47;;;2.70;;
26474;SDS011;14161;52.270;10.334;2023-08-08T07:00:35;6.50;;;3.10;;
26474;SDS011;14161;52.270;10.334;2023-08-08T07:03:00;3.42;;;2.63;;
26474;SDS011;14161;52.270;10.334;2023-08-08T07:05:26;6.07;;;2.92;;
26474;SDS011;14161;52.270;10.334;2023-08-08T07:07:51;5.03;;;2.83;;
26474;SDS011;14161;52.270;10.334;2023-08-08T07:10:17;4.03;;;2.70;;
26474;SDS011;14161;52.270;10.334;2023-08-08T07:12:43;6.25;;;3.33;;
26474;SDS011;14161;52.270;10.334;2023-08-08T07:15:09;6.07;;;2.70;;
26474;SDS011;14161;52.270;10.334;2023-08-08T07:17:34;4.60;;;2.75;;
26474;SDS011;14161;52.270;10.334;2023-08-08T07:20:00;3.90;;;2.92;;
26474;SDS011;14161;52.270;10.334;2023-08-08T07:22:25;4.28;;;3.00;;
26474;SDS011;14161;52.270;10.334;2023-08-08T07:24:51;6.47;;;3.28;;
26474;SDS011;14161;52.270;10.334;2023-08-08T07:27:17;6.80;;;3.13;;
26474;SDS011;14161;52.270;10.334;2023-08-08T07:29:42;5.45;;;3.22;;
26474;SDS011;14161;52.270;10.334;2023-08-08T07:32:08;5.78;;;3.45;;
26474;SDS011;14161;52.270;10.334;2023-08-08T07:34:33;6.32;;;4.03;;
26474;SDS011;14161;52.270;10.334;2023-08-08T07:36:59;6.18;;;4.13;;
26474;SDS011;14161;52.270;10.334;2023-08-08T07:39:24;6.85;;;3.47;;
26474;SDS011;14161;52.270;10.334;2023-08-08T07:41:50;9.82;;;4.20;;
26474;SDS011;14161;52.270;10.334;2023-08-08T07:44:16;5.82;;;3.92;;
26474;SDS011;14161;52.270;10.334;2023-08-08T07:46:41;6.53;;;3.85;;
26474;SDS011;14161;52.270;10.334;2023-08-08T07:49:07;9.63;;;3.42;;
26474;SDS011;14161;52.270;10.334;2023-08-08T07:51:34;5.07;;;3.30;;
26474;SDS011;14161;52.270;10.334;2023-08-08T07:54:00;7.35;;;3.40;;
26474;SDS011;14161;52.270;10.334;2023-08-08T07:56:26;5.82;;;3.67;;
26474;SDS011;14161;52.270;10.334;2023-08-08T07:58:51;9.20;;;3.60;;
26474;SDS011;14161;52.270;10.334;2023-08-08T08:01:17;6.18;;;3.45;;
26474;SDS011;14161;52.270;10.334;2023-08-08T08:03:43;4.45;;;3.38;;
26474;SDS011;14161;52.270;10.334;2023-08-08T08:06:09;5.88;;;3.05;;
26474;SDS011;14161;52.270;10.334;2023-08-08T08:08:34;6.65;;;2.83;;
26474;SDS011;14161;52.270;10.334;2023-08-08T08:11:01;8.35;;;3.10;;
26474;SDS011;14161;52.270;10.334;2023-08-08T08:13:27;5.05;;;2.63;;
26474;SDS011;14161;52.270;10.334;2023-08-08T08:15:52;5.00;;;2.90;;
26474;SDS011;14161;52.270;10.334;2023-08-08T08:18:17;5.22;;;2.60;;
26474;SDS011;14161;52.270;10.334;2023-08-08T08:20:44;5.15;;;2.70;;
26474;SDS011;14161;52.270;10.334;2023-08-08T08:23:10;5.13;;;2.70;;
26474;SDS011;14161;52.270;10.334;2023-08-08T08:25:35;6.60;;;2.58;;
26474;SDS011;14161;52.270;10.334;2023-08-08T08:28:01;5.70;;;2.70;;
26474;SDS011;14161;52.270;10.334;2023-08-08T08:30:26;3.13;;;2.53;;
26474;SDS011;14161;52.270;10.334;2023-08-08T08:32:52;7.43;;;2.33;;
26474;SDS011;14161;52.270;10.334;2023-08-08T08:35:17;5.28;;;1.88;;
26474;SDS011;14161;52.270;10.334;2023-08-08T08:37:43;4.85;;;2.00;;
26474;SDS011;14161;52.270;10.334;2023-08-08T08:40:09;3.78;;;2.53;;
26474;SDS011;14161;52.270;10.334;2023-08-08T08:42:35;1.83;;;1.60;;
26474;SDS011;14161;52.270;10.334;2023-08-08T08:45:01;3.97;;;2.00;;
26474;SDS011;14161;52.270;10.334;2023-08-08T08:47:29;2.33;;;1.70;;
26474;SDS011;14161;52.270;10.334;2023-08-08T08:49:56;5.55;;;2.22;;
26474;SDS011;14161;52.270;10.334;2023-08-08T08:52:22;7.40;;;2.38;;
26474;SDS011;14161;52.270;10.334;2023-08-08T08:54:48;2.28;;;1.73;;
26474;SDS011;14161;52.270;10.334;2023-08-08T08:57:14;3.35;;;1.90;;
26474;SDS011;14161;52.270;10.334;2023-08-08T08:59:39;3.28;;;1.35;;
26474;SDS011;14161;52.270;10.334;2023-08-08T09:02:04;3.40;;;1.70;;
26474;SDS011;14161;52.270;10.334;2023-08-08T09:04:31;6.15;;;1.40;;
26474;SDS011;14161;52.270;10.334;2023-08-08T09:06:57;4.38;;;1.58;;
26474;SDS011;14161;52.270;10.334;2023-08-08T09:09:23;3.58;;;1.50;;
26474;SDS011;14161;52.270;10.334;2023-08-08T09:11:49;2.65;;;1.40;;
26474;SDS011;14161;52.270;10.334;2023-08-08T09:14:16;5.28;;;1.70;;
26474;SDS011;14161;52.270;10.334;2023-08-08T09:16:42;5.05;;;2.63;;
26474;SDS011;14161;52.270;10.334;2023-08-08T09:19:07;7.45;;;2.28;;
26474;SDS011;14161;52.270;10.334;2023-08-08T09:21:33;5.70;;;2.08;;
26474;SDS011;14161;52.270;10.334;2023-08-08T09:23:58;6.97;;;2.40;;
26474;SDS011;14161;52.270;10.334;2023-08-08T09:26:24;4.72;;;2.28;;
26474;SDS011;14161;52.270;10.334;2023-08-08T09:28:50;4.07;;;1.58;;
26474;SDS011;14161;52.270;10.334;2023-08-08T09:31:16;3.38;;;1.70;;
26474;SDS011;14161;52.270;10.334;2023-08-08T09:33:42;3.13;;;1.80;;
26474;SDS011;14161;52.270;10.334;2023-08-08T09:36:13;2.63;;;1.80;;
26474;SDS011;14161;52.270;10.334;2023-08-08T09:38:42;3.22;;;2.20;;
26474;SDS011;14161;52.270;10.334;2023-08-08T09:41:07;6.03;;;2.10;;
26474;SDS011;14161;52.270;10.334;2023-08-08T09:43:33;1.83;;;1.70;;
26474;SDS011;14161;52.270;10.334;2023-08-08T09:45:58;3.53;;;2.00;;
26474;SDS011;14161;52.270;10.334;2023-08-08T09:48:30;5.97;;;2.00;;
26474;SDS011;14161;52.270;10.334;2023-08-08T09:51:00;3.40;;;2.60;;
26474;SDS011;14161;52.270;10.334;2023-08-08T09:53:27;3.53;;;2.38;;
26474;SDS011;14161;52.270;10.334;2023-08-08T09:55:53;4.82;;;2.30;;
26474;SDS011;14161;52.270;10.334;2023-08-08T09:58:19;3.72;;;2.03;;
26474;SDS011;14161;52.270;10.334;2023-08-08T10:00:45;4.85;;;2.17;;
26474;SDS011;14161;52.270;10.334;2023-08-08T10:03:11;5.03;;;2.33;;
26474;SDS011;14161;52.270;10.334;2023-08-08T10:05:36;5.53;;;2.60;;
26474;SDS011;14161;52.270;10.334;2023-08-08T10:08:03;5.78;;;2.78;;
26474;SDS011;14161;52.270;10.334;2023-08-08T10:10:29;3.45;;;2.50;;
26474;SDS011;14161;52.270;10.334;2023-08-08T10:12:55;4.00;;;2.63;;
26474;SDS011;14161;52.270;10.334;2023-08-08T10:15:25;5.97;;;2.22;;
26474;SDS011;14161;52.270;10.334;2023-08-08T10:17:53;4.20;;;2.35;;
26474;SDS011;14161;52.270;10.334;2023-08-08T10:20:19;4.10;;;2.22;;
26474;SDS011;14161;52.270;10.334;2023-08-08T10:22:45;8.35;;;2.63;;
26474;SDS011;14161;52.270;10.334;2023-08-08T10:25:45;6.03;;;2.47;;
26474;SDS011;14161;52.270;10.334;2023-08-08T10:28:09;5.35;;;2.92;;
26474;SDS011;14161;52.270;10.334;2023-08-08T10:30:41;3.13;;;2.22;;
26474;SDS011;14161;52.270;10.334;2023-08-08T10:33:39;4.10;;;2.80;;
26474;SDS011;14161;52.270;10.334;2023-08-08T10:36:06;7.25;;;3.47;;
26474;SDS011;14161;52.270;10.334;2023-08-08T10:38:45;4.22;;;2.92;;
26474;SDS011;14161;52.270;10.334;2023-08-08T10:41:17;3.75;;;2.70;;
26474;SDS011;14161;52.270;10.334;2023-08-08T10:43:50;4.53;;;2.80;;
26474;SDS011;14161;52.270;10.334;2023-08-08T10:46:25;6.32;;;3.13;;
26474;SDS011;14161;52.270;10.334;2023-08-08T10:48:53;6.05;;;3.00;;
26474;SDS011;14161;52.270;10.334;2023-08-08T10:51:20;5.80;;;3.08;;
26474;SDS011;14161;52.270;10.334;2023-08-08T10:53:46;3.42;;;2.35;;
26474;SDS011;14161;52.270;10.334;2023-08-08T10:56:12;4.80;;;2.88;;
26474;SDS011;14161;52.270;10.334;2023-08-08T10:58:42;6.90;;;3.25;;
26474;SDS011;14161;52.270;10.334;2023-08-08T11:01:13;5.70;;;2.92;;
26474;SDS011;14161;52.270;10.334;2023-08-08T11:03:39;5.50;;;2.55;;
26474;SDS011;14161;52.270;10.334;2023-08-08T11:06:06;4.22;;;2.75;;
26474;SDS011;14161;52.270;10.334;2023-08-08T11:08:33;5.38;;;2.65;;
26474;SDS011;14161;52.270;10.334;2023-08-08T11:11:00;7.40;;;3.17;;
26474;SDS011;14161;52.270;10.334;2023-08-08T11:13:26;5.25;;;2.60;;
26474;SDS011;14161;52.270;10.334;2023-08-08T11:15:51;3.78;;;2.00;;
26474;SDS011;14161;52.270;10.334;2023-08-08T11:18:17;6.70;;;2.60;;
26474;SDS011;14161;52.270;10.334;2023-08-08T11:20:43;4.32;;;2.20;;
26474;SDS011;14161;52.270;10.334;2023-08-08T11:23:09;4.18;;;2.35;;
26474;SDS011;14161;52.270;10.334;2023-08-08T11:25:36;5.32;;;2.20;;
26474;SDS011;14161;52.270;10.334;2023-08-08T11:28:01;5.30;;;2.13;;
26474;SDS011;14161;52.270;10.334;2023-08-08T11:30:28;4.10;;;2.50;;
26474;SDS011;14161;52.270;10.334;2023-08-08T11:32:55;3.85;;;2.17;;
26474;SDS011;14161;52.270;10.334;2023-08-08T11:35:24;2.95;;;2.22;;
26474;SDS011;14161;52.270;10.334;2023-08-08T11:37:50;5.95;;;2.58;;
26474;SDS011;14161;52.270;10.334;2023-08-08T11:40:17;5.53;;;2.83;;
26474;SDS011;14161;52.270;10.334;2023-08-08T11:42:42;6.53;;;2.90;;
26474;SDS011;14161;52.270;10.334;2023-08-08T11:45:09;7.18;;;2.50;;
26474;SDS011;14161;52.270;10.334;2023-08-08T11:47:35;4.28;;;2.22;;
26474;SDS011;14161;52.270;10.334;2023-08-08T11:50:03;3.92;;;1.88;;
26474;SDS011;14161;52.270;10.334;2023-08-08T11:52:29;2.60;;;1.67;;
26474;SDS011;14161;52.270;10.334;2023-08-08T11:54:55;8.02;;;2.00;;
26474;SDS011;14161;52.270;10.334;2023-08-08T11:57:21;2.40;;;1.80;;
26474;SDS011;14161;52.270;10.334;2023-08-08T11:59:48;2.95;;;1.70;;
26474;SDS011;14161;52.270;10.334;2023-08-08T12:02:14;4.38;;;1.73;;
26474;SDS011;14161;52.270;10.334;2023-08-08T12:04:43;4.65;;;1.90;;
26474;SDS011;14161;52.270;10.334;2023-08-08T12:07:10;2.83;;;1.65;;
26474;SDS011;14161;52.270;10.334;2023-08-08T12:09:36;5.60;;;1.70;;
26474;SDS011;14161;52.270;10.334;2023-08-08T12:12:02;3.70;;;1.60;;
26474;SDS011;14161;52.270;10.334;2023-08-08T12:14:29;2.58;;;1.33;;
26474;SDS011;14161;52.270;10.334;2023-08-08T12:16:54;3.08;;;1.42;;
26474;SDS011;14161;52.270;10.334;2023-08-08T12:19:24;2.65;;;1.30;;
26474;SDS011;14161;52.270;10.334;2023-08-08T12:21:50;1.20;;;1.08;;
26474;SDS011;14161;52.270;10.334;2023-08-08T12:24:16;4.70;;;1.50;;
26474;SDS011;14161;52.270;10.334;2023-08-08T12:26:45;3.38;;;1.50;;
26474;SDS011;14161;52.270;10.334;2023-08-08T12:29:11;1.95;;;1.23;;
26474;SDS011;14161;52.270;10.334;2023-08-08T12:31:37;5.07;;;1.80;;
26474;SDS011;14161;52.270;10.334;2023-08-08T12:34:03;2.58;;;1.27;;
26474;SDS011;14161;52.270;10.334;2023-08-08T12:36:29;2.03;;;1.20;;
26474;SDS011;14161;52.270;10.334;2023-08-08T12:38:55;2.72;;;1.50;;
26474;SDS011;14161;52.270;10.334;2023-08-08T12:41:20;2.47;;;1.30;;
26474;SDS011;14161;52.270;10.334;2023-08-08T12:43:46;4.75;;;1.35;;
26474;SDS011;14161;52.270;10.334;2023-08-08T12:46:11;4.38;;;1.67;;
26474;SDS011;14161;52.270;10.334;2023-08-08T12:48:36;2.53;;;1.40;;
26474;SDS011;14161;52.270;10.334;2023-08-08T12:51:02;2.50;;;1.00;;
26474;SDS011;14161;52.270;10.334;2023-08-08T12:53:28;4.95;;;1.27;;
26474;SDS011;14161;52.270;10.334;2023-08-08T12:55:54;5.07;;;1.58;;
26474;SDS011;14161;52.270;10.334;2023-08-08T12:58:19;6.13;;;1.38;;
26474;SDS011;14161;52.270;10.334;2023-08-08T13:00:45;2.13;;;1.05;;
26474;SDS011;14161;52.270;10.334;2023-08-08T13:03:11;2.85;;;1.20;;
26474;SDS011;14161;52.270;10.334;2023-08-08T13:05:37;2.10;;;0.80;;
26474;SDS011;14161;52.270;10.334;2023-08-08T13:08:04;3.40;;;1.10;;
26474;SDS011;14161;52.270;10.334;2023-08-08T13:10:30;1.75;;;0.90;;
26474;SDS011;14161;52.270;10.334;2023-08-08T13:12:55;3.45;;;1.10;;
26474;SDS011;14161;52.270;10.334;2023-08-08T13:15:21;4.85;;;1.20;;
26474;SDS011;14161;52.270;10.334;2023-08-08T13:17:46;1.45;;;0.98;;
26474;SDS011;14161;52.270;10.334;2023-08-08T13:20:12;1.38;;;1.17;;
26474;SDS011;14161;52.270;10.334;2023-08-08T13:22:38;3.95;;;1.48;;
26474;SDS011;14161;52.270;10.334;2023-08-08T13:25:03;1.63;;;0.90;;
26474;SDS011;14161;52.270;10.334;2023-08-08T13:27:30;3.70;;;1.00;;
26474;SDS011;14161;52.270;10.334;2023-08-08T13:29:56;2.40;;;1.00;;
26474;SDS011;14161;52.270;10.334;2023-08-08T13:32:22;0.90;;;0.70;;
26474;SDS011;14161;52.270;10.334;2023-08-08T13:34:48;3.38;;;1.10;;
26474;SDS011;14161;52.270;10.334;2023-08-08T13:37:14;5.53;;;1.00;;
26474;SDS011;14161;52.270;10.334;2023-08-08T13:39:40;3.85;;;1.20;;
26474;SDS011;14161;52.270;10.334;2023-08-08T13:42:06;7.03;;;1.33;;
26474;SDS011;14161;52.270;10.334;2023-08-08T13:44:31;2.45;;;0.80;;
26474;SDS011;14161;52.270;10.334;2023-08-08T13:46:57;4.32;;;0.70;;
26474;SDS011;14161;52.270;10.334;2023-08-08T13:49:23;1.85;;;0.70;;
26474;SDS011;14161;52.270;10.334;2023-08-08T13:51:51;1.08;;;0.77;;
26474;SDS011;14161;52.270;10.334;2023-08-08T13:54:17;1.20;;;0.70;;
26474;SDS011;14161;52.270;10.334;2023-08-08T13:56:43;1.80;;;0.88;;
26474;SDS011;14161;52.270;10.334;2023-08-08T13:59:09;1.20;;;0.70;;
26474;SDS011;14161;52.270;10.334;2023-08-08T14:01:34;1.60;;;0.90;;
26474;SDS011;14161;52.270;10.334;2023-08-08T14:04:00;1.77;;;0.70;;
26474;SDS011;14161;52.270;10.334;2023-08-08T14:06:25;1.92;;;0.82;;
26474;SDS011;14161;52.270;10.334;2023-08-08T14:08:52;1.05;;;0.40;;
26474;SDS011;14161;52.270;10.334;2023-08-08T14:11:17;0.90;;;0.50;;
26474;SDS011;14161;52.270;10.334;2023-08-08T14:13:43;1.15;;;0.60;;
26474;SDS011;14161;52.270;10.334;2023-08-08T14:16:09;2.78;;;0.57;;
26474;SDS011;14161;52.270;10.334;2023-08-08T14:18:34;2.35;;;0.80;;
26474;SDS011;14161;52.270;10.334;2023-08-08T14:21:00;0.90;;;0.60;;
26474;SDS011;14161;52.270;10.334;2023-08-08T14:23:27;2.42;;;0.63;;
26474;SDS011;14161;52.270;10.334;2023-08-08T14:25:52;0.95;;;0.70;;
26474;SDS011;14161;52.270;10.334;2023-08-08T14:28:18;3.22;;;0.70;;
26474;SDS011;14161;52.270;10.334;2023-08-08T14:30:43;2.38;;;0.80;;